Flight Track Log - Related Links

Times and Time Zones

All times are in EDT time to prevent confusion due to time zone crossing. See the EJA826 flight status page for this flight to view local times or setup timezone preferences in your user account.

Time Position Orientation Groundspeed Altitude Reporting Facility
EDT Latitude Longitude Course Direction KTS MPH feet Rate Location/Type
Thu 04:15:41 PM 40.8833 -74.0500 339° North 187 215 1,700  Level New York TRACON
Thu 04:16:41 PM 40.9167 -74.0667 339° North 204 235 5,000 2,200 Climbing New York TRACON
Thu 04:17:41 PM 40.9833 -74.1333 323° Northwest 269 310 6,100 550 Climbing New York TRACON
Thu 04:18:41 PM 41.0500 -74.1333 360° North 277 319 6,100 750 Level New York TRACON
Thu 04:19:41 PM 41.1167 -74.1167 11° North 282 325 7,600 1,873 Climbing New York TRACON
Thu 04:21:18 PM 41.1775 -73.9486 64° Northeast 303 349 11,000 1,758 Climbing Boston Center
Thu 04:22:18 PM 41.2081 -73.8333 71° East 327 376 12,200 1,000 Climbing Boston Center
Thu 04:23:18 PM 41.2303 -73.7236 75° East 316 364 13,000 400 Climbing Boston Center
Thu 04:24:18 PM 41.2400 -73.5911 84° East 338 389 13,000  Level Boston Center
Thu 04:25:18 PM 41.2494 -73.4617 84° East 348 400 13,000  Level Boston Center
Thu 04:26:30 PM 41.2547 -73.3456 87° East 353 406 13,000 -45 Level Boston Center
Thu 04:27:30 PM 41.2664 -73.1886 84° East 348 400 12,900  Descending Boston Center
Thu 04:28:30 PM 41.2714 -73.0422 87° East 353 406 13,000 50 Climbing Boston Center
Thu 04:29:30 PM 41.2742 -72.9097 88° East 353 406 13,000  Level Boston Center
Thu 04:30:30 PM 41.2869 -72.7772 83° East 358 412 13,000  Level Boston Center
Thu 04:31:30 PM 41.2978 -72.6556 83° East 364 419 13,000  Level Boston Center
Thu 04:32:30 PM 41.3042 -72.5092 87° East 364 419 13,000 -66 Level Boston Center
Thu 04:33:01 PM 41.3106 -72.4428 83° East 357 411 12,900 -650 Descending Boston Center
Thu 04:34:30 PM 41.3228 -72.2383 85° East 364 419 11,700 -781 Descending Boston Center
Thu 04:35:27 PM 41.3267 -72.1139 88° East 355 409 11,000 -350 Descending Boston Center
Thu 04:36:30 PM 41.3367 -71.9839 84° East 352 405 11,000 -472 Level Boston Center
Thu 04:37:34 PM 41.3422 -71.8428 87° East 349 402 10,000 -1,440 Descending Boston Center
Thu 04:38:35 PM 41.3478 -71.7211 86° East 333 383 8,000 -2,066 Descending Boston Center
Thu 04:39:36 PM 41.3511 -71.6078 88° East 297 342 5,800 -1,781 Descending Boston Center
Thu 04:40:43 PM 41.3586 -71.4917 85° East 290 334 4,200 -1,254 Descending Boston Center
Thu 04:41:50 PM 41.3867 -71.3886 70° East 262 302 3,000 -590 Descending Boston Center
Thu 04:42:45 PM 41.4278 -71.3244 49° Northeast 249 287 3,000 -49 Level Boston Center
Thu 04:43:52 PM 41.4792 -71.2514 47° Northeast 242 278 2,900 -469 Descending Boston Center
Thu 04:44:53 PM 41.4847 -71.1875 83° East 202 232 2,000 -885 Descending Boston Center

Login

Don't have an account? Register now (free) for customized features, flight alerts, and more!